Terminal Aerodrome Forecast
Issued by NWS Wichita, KS

Home | Current Version | Previous Version | Text Only | Print | Product List | Glossary On
Versions: 1 2 3 4 5 6 7 8 9 10 11 12 13 14 15 16 17 18 19 20
000
FTUS43 KICT 311523 AAC
TAFICT
TAF AMD
KICT 311523Z 3115/0112 03005KT P6SM VCSH SCT015 BKN035
      TEMPO 3115/3117 3SM SHRA
     FM010000 05005KT P6SM SCT015 BKN035
     FM010400 04005KT P6SM OVC015=

USA.gov is the U.S. government's official web portal to all federal, state and local government web resources and services.